East Middlebury, Vermont
Current Conditions -  °F | °C
As of 2:15 AM on Sunday 23 Nov 2014 (Local Time) from K6B0 Reporting Station
Light Rain Light Rain  
Wind Chill:   Ceiling: 2100
Heat Index:   Visibility: 10mi
Dew Point:   Wind: 8mph
Humidity: 83%   Direction: 170°S
Pressure: 30.01"   Gusts: NA
Location:  43.97°N, 73.11°W
Report Text: K6B0 230715Z AUTO 17007KT 140V200 10SM -RA OVC021 04/01 A3001 RMK AO2 T00400013
Loading
Personal Weather Stations






























Interactive Weather Map New forecast layout! Learn more

10-Day Weather Forecast

Advertisements
Track Severe Weather on mobile